createdAt,value
2018-01-05T00:00:23.986Z,44.96
2018-01-05T00:01:33.182Z,44.79
2018-01-05T00:02:42.380Z,44.86
2018-01-05T00:03:51.574Z,44.86
2018-01-05T00:05:00.517Z,44.76
2018-01-05T00:06:10.508Z,44.86
2018-01-05T00:07:19.456Z,44.86
2018-01-05T00:08:28.400Z,44.86
2018-01-05T00:09:37.880Z,44.86
2018-01-05T00:10:47.091Z,44.86
2018-01-05T00:11:56.288Z,44.96
2018-01-05T00:13:05.227Z,44.96
2018-01-05T00:14:14.445Z,44.96
2018-01-05T00:15:23.655Z,45.05
2018-01-05T00:16:32.596Z,44.86
2018-01-05T00:17:41.806Z,44.86
2018-01-05T00:18:51.305Z,44.86
2018-01-05T00:20:00.504Z,44.86
2018-01-05T00:21:09.971Z,44.86
2018-01-05T00:22:18.903Z,44.86
2018-01-05T00:23:28.103Z,44.86
2018-01-05T00:24:37.036Z,44.89
2018-01-05T00:25:45.975Z,44.86
2018-01-05T00:26:55.451Z,44.96
2018-01-05T00:28:04.396Z,44.76
2018-01-05T00:29:13.343Z,44.67
2018-01-05T00:30:22.809Z,44.96
2018-01-05T00:31:31.493Z,44.76
2018-01-05T00:32:40.960Z,44.86
2018-01-05T00:33:49.908Z,44.86
2018-01-05T00:34:59.121Z,44.86
2018-01-05T00:36:08.327Z,44.86
2018-01-05T00:37:17.795Z,44.96
2018-01-05T00:38:27.592Z,44.86
2018-01-05T00:39:36.539Z,44.86
2018-01-05T00:40:45.231Z,44.86
2018-01-05T00:41:54.430Z,44.76
2018-01-05T00:43:03.436Z,44.86
2018-01-05T00:44:12.377Z,44.96
2018-01-05T00:45:21.324Z,44.76
2018-01-05T00:46:30.272Z,44.67
2018-01-05T00:47:39.254Z,44.96
2018-01-05T00:48:47.929Z,44.86
2018-01-05T00:49:56.868Z,44.96
2018-01-05T00:51:06.072Z,44.67
2018-01-05T00:52:15.042Z,44.86
2018-01-05T00:53:23.726Z,44.67
2018-01-05T00:54:32.675Z,44.67
2018-01-05T00:55:41.876Z,44.76
2018-01-05T00:56:50.821Z,44.67
2018-01-05T00:57:59.771Z,44.86
2018-01-05T00:59:08.724Z,44.38
2018-01-05T01:00:17.931Z,44.67
2018-01-05T01:01:26.878Z,44.67
2018-01-05T01:02:36.070Z,44.57
2018-01-05T01:03:45.534Z,45.05
2018-01-05T01:04:54.477Z,44.48
2018-01-05T01:06:03.425Z,44.76
2018-01-05T01:07:12.102Z,44.38
2018-01-05T01:08:21.835Z,44.48
2018-01-05T01:09:30.769Z,44.38
2018-01-05T01:10:39.723Z,44.28
2018-01-05T01:11:48.667Z,44.48
2018-01-05T01:12:58.145Z,44.48
2018-01-05T01:14:07.093Z,44.38
2018-01-05T01:15:16.295Z,44.38
2018-01-05T01:16:25.761Z,44.48
2018-01-05T01:17:34.967Z,44.19
2018-01-05T01:18:44.167Z,44.57
2018-01-05T01:19:53.635Z,44.48
2018-01-05T01:21:02.828Z,44.48
2018-01-05T01:22:12.028Z,44.48
2018-01-05T01:23:21.250Z,44.38
2018-01-05T01:24:30.735Z,44.48
2018-01-05T01:25:39.422Z,44.57
2018-01-05T01:26:48.631Z,44.67
2018-01-05T01:27:58.096Z,44.57
2018-01-05T01:29:07.569Z,44.57
2018-01-05T01:30:16.254Z,44.57
2018-01-05T01:31:25.201Z,44.57
2018-01-05T01:32:34.417Z,44.48
2018-01-05T01:33:43.394Z,44.57
2018-01-05T01:34:52.599Z,44.67
2018-01-05T01:36:02.057Z,44.57
2018-01-05T01:37:10.754Z,44.67
2018-01-05T01:38:19.962Z,44.48
2018-01-05T01:39:28.659Z,44.48
2018-01-05T01:40:37.599Z,44.67
2018-01-05T01:41:47.594Z,44.57
2018-01-05T01:42:56.532Z,44.67
2018-01-05T01:44:05.743Z,44.57
2018-01-05T01:45:14.953Z,44.76
2018-01-05T01:46:24.157Z,44.57
2018-01-05T01:47:33.902Z,44.76
2018-01-05T01:48:42.615Z,44.57
2018-01-05T01:49:51.815Z,44.76
2018-01-05T01:51:00.770Z,44.67
2018-01-05T01:52:09.768Z,44.67
2018-01-05T01:53:18.659Z,44.67
2018-01-05T01:54:27.873Z,44.67
2018-01-05T01:55:37.081Z,44.76
2018-01-05T01:56:46.282Z,44.76
2018-01-05T01:57:55.757Z,44.86
2018-01-05T01:59:05.494Z,44.76
2018-01-05T02:00:14.183Z,44.76
2018-01-05T02:01:23.398Z,44.76
2018-01-05T02:02:32.078Z,44.76
2018-01-05T02:03:40.775Z,44.86
2018-01-05T02:04:49.993Z,44.76
2018-01-05T02:05:59.197Z,44.76
2018-01-05T02:07:08.146Z,44.76
2018-01-05T02:08:17.354Z,44.67
2018-01-05T02:09:26.038Z,44.67
2018-01-05T02:10:35.782Z,44.48
2018-01-05T02:11:44.757Z,44.48
2018-01-05T02:12:53.706Z,44.57
2018-01-05T02:14:02.659Z,44.57
2018-01-05T02:15:11.880Z,44.57
2018-01-05T02:16:20.819Z,44.57
2018-01-05T02:17:29.762Z,44.57
2018-01-05T02:18:39.254Z,44.38
2018-01-05T02:19:48.995Z,44.57
2018-01-05T02:20:57.677Z,44.57
2018-01-05T02:22:06.885Z,44.09
2018-01-05T02:23:16.346Z,44.48
2018-01-05T02:24:25.551Z,44.57
2018-01-05T02:25:34.490Z,44.28
2018-01-05T02:26:44.213Z,44.09
2018-01-05T02:27:53.409Z,44.09
2018-01-05T02:29:02.349Z,44.09
2018-01-05T02:30:12.077Z,44.09
2018-01-05T02:31:21.089Z,44.19
2018-01-05T02:32:30.044Z,44.19
2018-01-05T02:33:39.516Z,44.09
2018-01-05T02:34:48.719Z,44.09
2018-01-05T02:35:57.657Z,44.09
2018-01-05T02:37:07.125Z,44.28
2018-01-05T02:38:16.403Z,44.09
2018-01-05T02:39:25.368Z,44.19
2018-01-05T02:40:34.039Z,44.09
2018-01-05T02:41:42.736Z,44.28
2018-01-05T02:42:51.940Z,44.09
2018-01-05T02:44:01.154Z,44.09
2018-01-05T02:45:10.355Z,44.19
2018-01-05T02:46:19.563Z,44.09
2018-01-05T02:47:28.764Z,44.09
2018-01-05T02:48:37.982Z,44.09
2018-01-05T02:49:47.195Z,44.09
2018-01-05T02:50:55.874Z,44.09
2018-01-05T02:52:05.083Z,44.09
2018-01-05T02:53:14.030Z,43.99
2018-01-05T02:54:23.486Z,43.99
2018-01-05T02:55:32.429Z,44.19
2018-01-05T02:56:42.151Z,44.09
2018-01-05T02:57:51.614Z,44.38
2018-01-05T02:59:00.569Z,44.19
2018-01-05T03:00:09.274Z,44.38
2018-01-05T03:01:18.747Z,44.09
2018-01-05T03:02:28.470Z,43.9
2018-01-05T03:03:37.423Z,44.38
2018-01-05T03:04:46.366Z,44.09
2018-01-05T03:05:55.044Z,43.9
2018-01-05T03:07:04.514Z,43.8
2018-01-05T03:08:13.457Z,44.09
2018-01-05T03:09:22.931Z,43.99
2018-01-05T03:10:32.158Z,44.28
2018-01-05T03:11:41.391Z,43.8
2018-01-05T03:12:50.605Z,44.19
2018-01-05T03:13:59.544Z,44.19
2018-01-05T03:15:08.752Z,44.09
2018-01-05T03:16:17.960Z,44.28
2018-01-05T03:17:27.686Z,44.28
2018-01-05T03:18:37.150Z,43.99
2018-01-05T03:19:46.104Z,44.09
2018-01-05T03:20:55.054Z,44.09
2018-01-05T03:22:04.260Z,44.28
2018-01-05T03:23:13.732Z,43.71
2018-01-05T03:24:22.738Z,44.19
2018-01-05T03:25:31.682Z,43.9
2018-01-05T03:26:41.160Z,43.71
2018-01-05T03:27:50.109Z,43.9
2018-01-05T03:28:58.795Z,43.99
2018-01-05T03:30:08.020Z,43.99
2018-01-05T03:31:17.514Z,44.19
2018-01-05T03:32:27.001Z,43.71
2018-01-05T03:33:36.220Z,43.9
2018-01-05T03:34:45.428Z,43.9
2018-01-05T03:35:54.373Z,43.99
2018-01-05T03:37:03.831Z,43.9
2018-01-05T03:38:12.515Z,43.99
2018-01-05T03:39:21.972Z,44.09
2018-01-05T03:40:31.174Z,44.09
2018-01-05T03:41:40.389Z,44.09
2018-01-05T03:42:49.863Z,44.09
2018-01-05T03:43:59.060Z,44.09
2018-01-05T03:45:08.268Z,44.09
2018-01-05T03:46:17.738Z,44.09
2018-01-05T03:47:27.207Z,44.09
2018-01-05T03:48:36.163Z,44.09
2018-01-05T03:49:45.100Z,43.99
2018-01-05T03:50:54.048Z,44.09
2018-01-05T03:52:03.258Z,44.19
2018-01-05T03:53:12.468Z,43.99
2018-01-05T03:54:21.419Z,44.09
2018-01-05T03:55:30.370Z,43.71
2018-01-05T03:56:39.061Z,44.28
2018-01-05T03:57:48.277Z,44.19
2018-01-05T03:58:57.496Z,43.9
2018-01-05T04:00:06.709Z,43.99
2018-01-05T04:01:15.907Z,43.8
2018-01-05T04:02:24.853Z,43.8
2018-01-05T04:03:33.536Z,43.61
2018-01-05T04:04:43.057Z,43.61
2018-01-05T04:05:52.539Z,43.71
2018-01-05T04:07:01.484Z,43.8
2018-01-05T04:08:11.210Z,43.71
2018-01-05T04:09:20.675Z,43.9
2018-01-05T04:10:30.148Z,43.71
2018-01-05T04:11:39.082Z,43.8
2018-01-05T04:12:47.769Z,43.71
2018-01-05T04:13:56.718Z,43.71
2018-01-05T04:15:05.916Z,43.8
2018-01-05T04:16:14.858Z,43.8
2018-01-05T04:17:23.806Z,43.8
2018-01-05T04:18:33.546Z,43.8
2018-01-05T04:19:42.754Z,43.8
2018-01-05T04:20:52.222Z,43.61
2018-01-05T04:22:01.436Z,43.71
2018-01-05T04:23:10.382Z,43.71
2018-01-05T04:24:19.066Z,43.71
2018-01-05T04:25:28.277Z,43.99
2018-01-05T04:26:37.212Z,43.8
2018-01-05T04:27:46.184Z,43.8
2018-01-05T04:28:54.841Z,43.71
2018-01-05T04:30:04.321Z,43.8
2018-01-05T04:31:13.850Z,43.9
2018-01-05T04:32:22.527Z,43.99
2018-01-05T04:33:31.734Z,43.99
2018-01-05T04:34:40.938Z,43.99
2018-01-05T04:35:49.877Z,43.9
2018-01-05T04:36:58.830Z,43.99
2018-01-05T04:38:07.572Z,43.99
2018-01-05T04:39:17.061Z,43.9
2018-01-05T04:40:25.815Z,43.99
2018-01-05T04:41:35.019Z,44.09
2018-01-05T04:42:44.512Z,43.9
2018-01-05T04:43:53.713Z,43.99
2018-01-05T04:45:02.400Z,43.99
2018-01-05T04:46:11.609Z,43.99
2018-01-05T04:47:21.073Z,43.99
2018-01-05T04:48:30.024Z,43.9
2018-01-05T04:49:38.977Z,43.9
2018-01-05T04:50:47.924Z,44.09
2018-01-05T04:51:57.139Z,44.09
2018-01-05T04:53:06.342Z,43.99
2018-01-05T04:54:15.569Z,43.99
2018-01-05T04:55:24.784Z,44.09
2018-01-05T04:56:33.721Z,43.99
2018-01-05T04:57:43.193Z,43.9
2018-01-05T04:58:52.398Z,43.8
2018-01-05T05:00:01.866Z,43.8
2018-01-05T05:01:10.560Z,43.99
2018-01-05T05:02:19.772Z,43.71
2018-01-05T05:03:28.975Z,43.8
2018-01-05T05:04:38.240Z,43.41
2018-01-05T05:05:46.920Z,43.51
2018-01-05T05:06:55.600Z,43.51
2018-01-05T05:08:04.547Z,43.51
2018-01-05T05:09:14.011Z,43.51
2018-01-05T05:10:23.218Z,43.41
2018-01-05T05:11:31.897Z,43.41
2018-01-05T05:12:40.842Z,43.51
2018-01-05T05:13:50.049Z,43.51
2018-01-05T05:14:59.266Z,43.32
2018-01-05T05:16:08.222Z,43.41
2018-01-05T05:17:17.444Z,43.51
2018-01-05T05:18:26.392Z,43.41
2018-01-05T05:19:35.613Z,43.41
2018-01-05T05:20:45.093Z,43.51
2018-01-05T05:21:54.823Z,43.41
2018-01-05T05:23:04.557Z,43.71
2018-01-05T05:24:14.022Z,43.51
2018-01-05T05:25:23.486Z,43.32
2018-01-05T05:26:32.959Z,43.51
2018-01-05T05:27:42.432Z,43.41
2018-01-05T05:28:51.902Z,43.41
2018-01-05T05:30:00.584Z,43.41
2018-01-05T05:31:09.523Z,43.51
2018-01-05T05:32:18.984Z,43.41
2018-01-05T05:33:27.665Z,43.41
2018-01-05T05:34:37.163Z,43.41
2018-01-05T05:35:46.628Z,43.41
2018-01-05T05:36:55.828Z,43.41
2018-01-05T05:38:05.306Z,43.41
2018-01-05T05:39:14.518Z,43.51
2018-01-05T05:40:23.465Z,43.61
2018-01-05T05:41:32.412Z,43.51
2018-01-05T05:42:41.617Z,43.13
2018-01-05T05:43:50.566Z,42.93
2018-01-05T05:44:59.505Z,42.96
2018-01-05T05:46:08.978Z,43.05
2018-01-05T05:47:17.981Z,42.67
2018-01-05T05:48:27.185Z,42.76
2018-01-05T05:49:36.131Z,42.47
2018-01-05T05:50:45.100Z,42.47
2018-01-05T05:51:54.310Z,42.38
2018-01-05T05:53:03.774Z,42.11
2018-01-05T05:54:13.265Z,42.3
2018-01-05T05:55:22.219Z,42.21
2018-01-05T05:56:31.168Z,42.11
2018-01-05T05:57:40.118Z,42.02
2018-01-05T05:58:49.321Z,41.92
2018-01-05T05:59:59.048Z,41.63
2018-01-05T06:01:07.988Z,41.92
2018-01-05T06:02:17.194Z,41.72
2018-01-05T06:03:26.140Z,41.63
2018-01-05T06:04:35.096Z,41.55
2018-01-05T06:05:44.369Z,41.65
2018-01-05T06:06:53.571Z,41.84
2018-01-05T06:08:02.533Z,41.65
2018-01-05T06:09:11.490Z,41.27
2018-01-05T06:10:20.179Z,41.36
2018-01-05T06:11:29.115Z,41.17
2018-01-05T06:12:38.049Z,41.07
2018-01-05T06:13:46.988Z,40.97
2018-01-05T06:14:55.925Z,41.07
2018-01-05T06:16:04.616Z,40.78
2018-01-05T06:17:13.821Z,40.88
2018-01-05T06:18:23.283Z,40.99
2018-01-05T06:19:32.748Z,40.99
2018-01-05T06:20:41.692Z,40.7
2018-01-05T06:21:51.417Z,40.8
2018-01-05T06:23:00.358Z,40.51
2018-01-05T06:24:09.819Z,40.61
2018-01-05T06:25:18.779Z,40.61
2018-01-05T06:26:27.785Z,40.51
2018-01-05T06:27:36.734Z,40.7
2018-01-05T06:28:45.414Z,40.24
2018-01-05T06:29:54.620Z,40.44
2018-01-05T06:31:04.098Z,40.44
2018-01-05T06:32:12.791Z,40.44
2018-01-05T06:33:21.474Z,40.44
2018-01-05T06:34:30.417Z,40.44
2018-01-05T06:35:39.106Z,40.34
2018-01-05T06:36:48.575Z,40.34
2018-01-05T06:37:57.527Z,40.53
2018-01-05T06:39:06.490Z,40.63
2018-01-05T06:40:15.708Z,40.44
2018-01-05T06:41:24.659Z,40.53
2018-01-05T06:42:34.144Z,40.34
2018-01-05T06:43:43.150Z,40.44
2018-01-05T06:44:52.353Z,40.44
2018-01-05T06:46:01.821Z,40.44
2018-01-05T06:47:10.779Z,40.34
2018-01-05T06:48:19.718Z,40.44
2018-01-05T06:49:28.653Z,40.24
2018-01-05T06:50:38.120Z,40.44
2018-01-05T06:51:47.595Z,40.44
2018-01-05T06:52:56.811Z,40.44
2018-01-05T06:54:06.038Z,40.72
2018-01-05T06:55:14.979Z,40.72
2018-01-05T06:56:24.461Z,40.82
2018-01-05T06:57:33.405Z,40.53
2018-01-05T06:58:42.625Z,40.63
2018-01-05T06:59:51.568Z,40.72
2018-01-05T07:01:00.509Z,40.63
2018-01-05T07:02:09.718Z,40.82
2018-01-05T07:03:18.920Z,40.72
2018-01-05T07:04:27.864Z,40.63
2018-01-05T07:05:36.804Z,40.82
2018-01-05T07:06:45.491Z,40.82
2018-01-05T07:07:55.212Z,41.02
2018-01-05T07:09:04.703Z,41.02
2018-01-05T07:10:13.960Z,41.11
2018-01-05T07:11:22.899Z,41.2
2018-01-05T07:12:32.098Z,41.2
2018-01-05T07:13:41.299Z,41.3
2018-01-05T07:14:50.517Z,41.48
2018-01-05T07:15:59.465Z,41.48
2018-01-05T07:17:08.680Z,41.48
2018-01-05T07:18:17.893Z,41.38
2018-01-05T07:19:26.847Z,41.86
2018-01-05T07:20:36.053Z,41.86
2018-01-05T07:21:44.985Z,41.77
2018-01-05T07:22:53.938Z,41.67
2018-01-05T07:24:03.145Z,41.86
2018-01-05T07:25:12.099Z,41.67
2018-01-05T07:26:21.637Z,41.77
2018-01-05T07:27:30.585Z,41.77
2018-01-05T07:28:39.794Z,41.86
2018-01-05T07:29:49.021Z,41.77
2018-01-05T07:30:57.982Z,42.25
2018-01-05T07:32:07.189Z,41.96
2018-01-05T07:33:15.880Z,41.96
2018-01-05T07:34:25.105Z,42.05
2018-01-05T07:35:33.778Z,42.15
2018-01-05T07:36:42.729Z,42.13
2018-01-05T07:37:51.673Z,42.32
2018-01-05T07:39:00.613Z,42.23
2018-01-05T07:40:10.090Z,41.94
2018-01-05T07:41:19.037Z,41.94
2018-01-05T07:42:28.288Z,42.32
2018-01-05T07:43:36.975Z,42.42
2018-01-05T07:44:45.926Z,42.32
2018-01-05T07:45:55.145Z,42.23
2018-01-05T07:47:04.358Z,42.32
2018-01-05T07:48:13.301Z,42.52
2018-01-05T07:49:22.799Z,42.42
2018-01-05T07:50:32.025Z,42.23
2018-01-05T07:51:41.006Z,42.61
2018-01-05T07:52:50.223Z,42.42
2018-01-05T07:53:58.939Z,42.52
2018-01-05T07:55:08.478Z,42.61
2018-01-05T07:56:17.421Z,42.71
2018-01-05T07:57:26.399Z,42.61
2018-01-05T07:58:35.698Z,42.8
2018-01-05T07:59:45.173Z,42.71
2018-01-05T08:00:54.122Z,42.9
2018-01-05T08:02:03.335Z,42.8
2018-01-05T08:03:12.275Z,42.71
2018-01-05T08:04:22.271Z,42.8
2018-01-05T08:05:31.745Z,42.79
2018-01-05T08:06:41.218Z,43.1
2018-01-05T08:07:50.173Z,42.8
2018-01-05T08:08:59.417Z,43.07
2018-01-05T08:10:08.357Z,43.07
2018-01-05T08:11:17.757Z,43.07
2018-01-05T08:12:27.344Z,43.07
2018-01-05T08:13:36.685Z,42.97
2018-01-05T08:14:46.213Z,43.17
2018-01-05T08:15:55.160Z,43.07
2018-01-05T08:17:04.383Z,43.07
2018-01-05T08:18:13.612Z,42.69
2018-01-05T08:19:22.821Z,42.88
2018-01-05T08:20:32.023Z,42.88
2018-01-05T08:21:40.704Z,42.88
2018-01-05T08:22:50.437Z,42.69
2018-01-05T08:23:59.381Z,42.97
2018-01-05T08:25:08.321Z,42.79
2018-01-05T08:26:16.997Z,43.07
2018-01-05T08:27:26.202Z,42.88
2018-01-05T08:28:35.409Z,43.07
2018-01-05T08:29:44.360Z,42.79
2018-01-05T08:30:53.586Z,42.88
2018-01-05T08:32:02.523Z,43.07
2018-01-05T08:33:11.481Z,42.97
2018-01-05T08:34:20.682Z,43.07
2018-01-05T08:35:29.625Z,42.88
2018-01-05T08:36:38.581Z,42.88
2018-01-05T08:37:48.058Z,42.88
2018-01-05T08:38:57.270Z,42.88
2018-01-05T08:40:06.476Z,42.97
2018-01-05T08:41:15.964Z,42.97
2018-01-05T08:42:24.906Z,42.97
2018-01-05T08:43:34.124Z,42.97
2018-01-05T08:44:43.339Z,42.97
2018-01-05T08:45:52.828Z,42.97
2018-01-05T08:47:02.044Z,42.97
2018-01-05T08:48:11.787Z,42.97
2018-01-05T08:49:21.002Z,43.07
2018-01-05T08:50:29.978Z,42.97
2018-01-05T08:51:39.713Z,43.07
2018-01-05T08:52:48.651Z,42.97
2018-01-05T08:53:58.390Z,43.07
2018-01-05T08:55:07.611Z,42.97
2018-01-05T08:56:16.815Z,42.79
2018-01-05T08:57:25.796Z,42.88
2018-01-05T08:58:35.526Z,42.79
2018-01-05T08:59:44.734Z,42.69
2018-01-05T09:00:53.682Z,42.88
2018-01-05T09:02:02.650Z,42.88
2018-01-05T09:03:11.903Z,42.88
2018-01-05T09:04:21.642Z,42.88
2018-01-05T09:05:30.583Z,42.88
2018-01-05T09:06:39.532Z,42.88
2018-01-05T09:07:49.006Z,42.79
2018-01-05T09:08:57.954Z,42.97
2018-01-05T09:10:07.182Z,43.07
2018-01-05T09:11:15.856Z,43.07
2018-01-05T09:12:25.320Z,43.17
2018-01-05T09:13:34.276Z,43.07
2018-01-05T09:14:43.229Z,43.07
2018-01-05T09:15:52.706Z,43.07
2018-01-05T09:17:01.907Z,42.79
2018-01-05T09:18:10.854Z,42.79
2018-01-05T09:19:19.540Z,42.79
2018-01-05T09:20:28.490Z,42.59
2018-01-05T09:21:37.435Z,42.88
2018-01-05T09:22:46.382Z,42.79
2018-01-05T09:23:55.335Z,42.69
2018-01-05T09:25:04.281Z,42.88
2018-01-05T09:26:13.495Z,42.79
2018-01-05T09:27:22.980Z,42.79
2018-01-05T09:28:32.204Z,42.88
2018-01-05T09:29:41.161Z,42.79
2018-01-05T09:30:49.860Z,42.69
2018-01-05T09:31:59.082Z,42.69
2018-01-05T09:33:08.298Z,42.69
2018-01-05T09:34:17.238Z,42.88
2018-01-05T09:35:26.180Z,42.69
2018-01-05T09:36:35.129Z,42.69
2018-01-05T09:37:44.612Z,42.49
2018-01-05T09:38:53.835Z,42.49
2018-01-05T09:40:03.054Z,42.59
2018-01-05T09:41:12.006Z,42.3
2018-01-05T09:42:20.688Z,42.3
2018-01-05T09:43:30.417Z,42.49
2018-01-05T09:44:39.899Z,42.3
2018-01-05T09:45:49.365Z,42.49
2018-01-05T09:46:58.306Z,42.4
2018-01-05T09:48:07.001Z,42.3
2018-01-05T09:49:16.227Z,42.11
2018-01-05T09:50:25.440Z,42.3
2018-01-05T09:51:34.395Z,42.49
2018-01-05T09:52:43.620Z,42.4
2018-01-05T09:53:52.565Z,42.4
2018-01-05T09:55:01.521Z,42.49
2018-01-05T09:56:10.998Z,42.49
2018-01-05T09:57:19.949Z,42.49
2018-01-05T09:58:28.968Z,42.3
2018-01-05T09:59:37.965Z,42.49
2018-01-05T10:00:46.920Z,42.4
2018-01-05T10:01:56.162Z,42.49
2018-01-05T10:03:05.370Z,42.49
2018-01-05T10:04:14.322Z,42.21
2018-01-05T10:05:23.806Z,42.49
2018-01-05T10:06:33.537Z,42.49
2018-01-05T10:07:42.238Z,42.21
2018-01-05T10:08:50.923Z,42.4
2018-01-05T10:10:00.138Z,42.3
2018-01-05T10:11:09.354Z,42.49
2018-01-05T10:12:19.365Z,42.3
2018-01-05T10:13:29.032Z,42.3
2018-01-05T10:14:37.721Z,42.3
2018-01-05T10:15:46.670Z,42.59
2018-01-05T10:16:55.618Z,42.21
2018-01-05T10:18:04.833Z,42.3
2018-01-05T10:19:14.314Z,42.3
2018-01-05T10:20:23.523Z,42.3
2018-01-05T10:21:32.513Z,42.3
2018-01-05T10:22:42.069Z,42.59
2018-01-05T10:23:52.061Z,42.11
2018-01-05T10:25:01.271Z,42.59
2018-01-05T10:26:10.222Z,42.59
2018-01-05T10:27:19.176Z,42.3
2018-01-05T10:28:28.961Z,42.3
2018-01-05T10:29:38.164Z,42.3
2018-01-05T10:30:47.377Z,42.21
2018-01-05T10:31:56.842Z,42.21
2018-01-05T10:33:06.325Z,42.4
2018-01-05T10:34:15.801Z,42.4
2018-01-05T10:35:25.019Z,42.4
2018-01-05T10:36:33.967Z,42.3
2018-01-05T10:37:43.469Z,42.21
2018-01-05T10:38:52.705Z,42.3
2018-01-05T10:40:01.672Z,42.3
2018-01-05T10:41:10.896Z,42.59
2018-01-05T10:42:20.362Z,42.3
2018-01-05T10:43:29.582Z,42.49
2018-01-05T10:44:38.536Z,42.3
2018-01-05T10:45:47.486Z,42.21
2018-01-05T10:46:56.429Z,42.11
2018-01-05T10:48:05.394Z,42.3
2018-01-05T10:49:14.601Z,42.4
2018-01-05T10:50:23.545Z,42.3
2018-01-05T10:51:33.012Z,42.21
2018-01-05T10:52:41.957Z,42.3
2018-01-05T10:53:51.441Z,42.3
2018-01-05T10:55:00.417Z,42.21
2018-01-05T10:56:09.623Z,42.3
2018-01-05T10:57:18.848Z,42.3
2018-01-05T10:58:27.792Z,42.59
2018-01-05T10:59:37.002Z,42.21
2018-01-05T11:00:45.949Z,42.3
2018-01-05T11:01:55.161Z,42.49
2018-01-05T11:03:04.898Z,42.3
2018-01-05T11:04:13.577Z,42.49
2018-01-05T11:05:22.799Z,42.21
2018-01-05T11:06:32.016Z,42.4
2018-01-05T11:07:40.954Z,42.49
2018-01-05T11:08:50.173Z,42.49
2018-01-05T11:09:59.385Z,42.49
2018-01-05T11:11:08.341Z,42.4
2018-01-05T11:12:17.549Z,42.3
2018-01-05T11:13:26.512Z,42.49
2018-01-05T11:14:35.733Z,42.4
2018-01-05T11:15:44.685Z,42.4
2018-01-05T11:16:53.906Z,42.3
2018-01-05T11:18:02.872Z,42.4
2018-01-05T11:19:12.084Z,42.3
2018-01-05T11:20:21.569Z,42.11
2018-01-05T11:21:30.795Z,42.21
2018-01-05T11:22:40.272Z,42.21
2018-01-05T11:23:49.230Z,42.4
2018-01-05T11:24:58.439Z,42.3
2018-01-05T11:26:07.664Z,42.3
2018-01-05T11:27:16.958Z,42.21
2018-01-05T11:28:26.428Z,42.3
2018-01-05T11:29:35.914Z,42.11
2018-01-05T11:30:45.114Z,42.3
2018-01-05T11:31:54.347Z,42.21
2018-01-05T11:33:03.814Z,42.4
2018-01-05T11:34:13.290Z,42.4
2018-01-05T11:35:23.049Z,42.21
2018-01-05T11:36:32.264Z,42.3
2018-01-05T11:37:41.476Z,42.3
2018-01-05T11:38:50.417Z,42.3
2018-01-05T11:39:59.886Z,42.3
2018-01-05T11:41:08.832Z,42.3
2018-01-05T11:42:17.791Z,42.11
2018-01-05T11:43:27.259Z,42.11
2018-01-05T11:44:36.211Z,42.4
2018-01-05T11:45:45.172Z,42.3
2018-01-05T11:46:54.193Z,42.11
2018-01-05T11:48:03.397Z,42.3
2018-01-05T11:49:12.096Z,42.4
2018-01-05T11:50:21.310Z,42.3
2018-01-05T11:51:31.049Z,42.4
2018-01-05T11:52:40.023Z,42.3
2018-01-05T11:53:49.511Z,42.4
2018-01-05T11:54:58.466Z,42.4
2018-01-05T11:56:07.692Z,42.3
2018-01-05T11:57:16.638Z,42.3
2018-01-05T11:58:25.845Z,42.21
2018-01-05T11:59:34.788Z,41.82
2018-01-05T12:00:44.598Z,41.92
2018-01-05T12:01:53.565Z,42.11
2018-01-05T12:03:02.514Z,41.92
2018-01-05T12:04:11.733Z,42.11
2018-01-05T12:05:20.953Z,41.92
2018-01-05T12:06:30.156Z,42.02
2018-01-05T12:07:38.850Z,42.3
2018-01-05T12:08:48.059Z,41.92
2018-01-05T12:09:57.014Z,41.92
2018-01-05T12:11:05.964Z,42.11
2018-01-05T12:12:15.188Z,42.3
2018-01-05T12:13:24.630Z,42.21
2018-01-05T12:14:33.598Z,42.3
2018-01-05T12:15:43.076Z,42.21
2018-01-05T12:16:52.018Z,42.3
2018-01-05T12:18:01.491Z,42.3
2018-01-05T12:19:10.454Z,42.3
2018-01-05T12:20:19.662Z,42.21
2018-01-05T12:21:28.878Z,42.3
2018-01-05T12:22:37.825Z,42.3
2018-01-05T12:23:47.048Z,42.3
2018-01-05T12:24:56.255Z,42.3
2018-01-05T12:26:04.936Z,42.3
2018-01-05T12:27:13.899Z,42.3
2018-01-05T12:28:22.846Z,42.3
2018-01-05T12:29:31.787Z,42.3
2018-01-05T12:30:41.275Z,42.3
2018-01-05T12:31:51.044Z,42.3
2018-01-05T12:32:59.997Z,42.21
2018-01-05T12:34:09.549Z,42.21
2018-01-05T12:35:19.047Z,42.3
2018-01-05T12:36:28.003Z,42.21
2018-01-05T12:37:36.962Z,42.3
2018-01-05T12:38:45.650Z,42.21
2018-01-05T12:39:54.865Z,42.3
2018-01-05T12:41:04.088Z,42.21
2018-01-05T12:42:13.365Z,42.3
2018-01-05T12:43:22.842Z,42.3
2018-01-05T12:44:31.796Z,42.3
2018-01-05T12:45:41.069Z,42.4
2018-01-05T12:46:50.273Z,42.4
2018-01-05T12:47:59.746Z,42.11
2018-01-05T12:49:08.697Z,42.49
2018-01-05T12:50:17.899Z,42.21
2018-01-05T12:51:27.115Z,42.21
2018-01-05T12:52:36.066Z,42.11
2018-01-05T12:53:44.748Z,42.21
2018-01-05T12:54:53.708Z,42.3
2018-01-05T12:56:02.657Z,42.3
2018-01-05T12:57:11.602Z,42.3
2018-01-05T12:58:20.545Z,42.11
2018-01-05T12:59:29.783Z,42.38
2018-01-05T13:00:38.755Z,42.3
2018-01-05T13:01:47.448Z,42.02
2018-01-05T13:02:56.663Z,42.02
2018-01-05T13:04:05.616Z,42.3
2018-01-05T13:05:14.834Z,42.21
2018-01-05T13:06:23.509Z,42.3
2018-01-05T13:07:32.219Z,42.02
2018-01-05T13:08:40.908Z,42.09
2018-01-05T13:09:50.129Z,42.11
2018-01-05T13:10:59.335Z,41.92
2018-01-05T13:12:08.808Z,42.21
2018-01-05T13:13:18.013Z,42.02
2018-01-05T13:14:26.959Z,42.09
2018-01-05T13:15:35.656Z,42.02
2018-01-05T13:16:44.600Z,42.02
2018-01-05T13:17:53.546Z,42.11
2018-01-05T13:19:03.011Z,41.99
2018-01-05T13:20:12.225Z,42.02
2018-01-05T13:21:21.175Z,42.02
2018-01-05T13:22:30.651Z,42.21
2018-01-05T13:23:39.600Z,42.09
2018-01-05T13:24:48.544Z,42.21
2018-01-05T13:25:57.502Z,42.21
2018-01-05T13:27:06.448Z,42.09
2018-01-05T13:28:15.658Z,42.19
2018-01-05T13:29:24.604Z,42.21
2018-01-05T13:30:33.294Z,42.02
2018-01-05T13:31:42.684Z,41.99
2018-01-05T13:32:51.892Z,42.21
2018-01-05T13:34:00.841Z,42.21
2018-01-05T13:35:09.531Z,41.89
2018-01-05T13:36:18.497Z,41.99
2018-01-05T13:37:27.991Z,42.02
2018-01-05T13:38:37.462Z,41.99
2018-01-05T13:39:46.952Z,41.89
2018-01-05T13:40:56.154Z,41.89
2018-01-05T13:42:05.368Z,41.92
2018-01-05T13:43:14.581Z,42.02
2018-01-05T13:44:23.873Z,41.92
2018-01-05T13:45:32.833Z,41.89
2018-01-05T13:46:41.525Z,41.89
2018-01-05T13:47:50.739Z,41.89
2018-01-05T13:48:59.444Z,41.82
2018-01-05T13:50:08.639Z,42.11
2018-01-05T13:51:17.596Z,42.09
2018-01-05T13:52:26.806Z,42.02
2018-01-05T13:53:36.029Z,41.82
2018-01-05T13:54:45.287Z,41.89
2018-01-05T13:55:54.498Z,42.02
2018-01-05T13:57:03.438Z,42.09
2018-01-05T13:58:12.921Z,41.89
2018-01-05T13:59:21.890Z,42.02
2018-01-05T14:00:30.852Z,41.99
2018-01-05T14:01:39.851Z,42.02
2018-01-05T14:02:49.028Z,41.89
2018-01-05T14:03:57.970Z,41.99
2018-01-05T14:05:06.671Z,42.02
2018-01-05T14:06:16.149Z,41.89
2018-01-05T14:07:25.887Z,41.92
2018-01-05T14:08:34.836Z,41.99
2018-01-05T14:09:44.066Z,41.99
2018-01-05T14:10:53.275Z,41.99
2018-01-05T14:12:02.805Z,41.8
2018-01-05T14:13:11.490Z,41.89
2018-01-05T14:14:20.713Z,42.02
2018-01-05T14:15:30.189Z,41.92
2018-01-05T14:16:39.443Z,41.92
2018-01-05T14:17:48.448Z,41.99
2018-01-05T14:18:57.684Z,42.02
2018-01-05T14:20:06.905Z,41.8
2018-01-05T14:21:15.866Z,41.99
2018-01-05T14:22:25.344Z,41.8
2018-01-05T14:23:34.562Z,41.89
2018-01-05T14:24:43.775Z,41.99
2018-01-05T14:25:53.259Z,41.89
2018-01-05T14:27:02.221Z,42.19
2018-01-05T14:28:10.913Z,42.11
2018-01-05T14:29:19.859Z,41.82
2018-01-05T14:30:29.860Z,42.11
2018-01-05T14:31:39.072Z,41.99
2018-01-05T14:32:48.553Z,41.89
2018-01-05T14:33:57.492Z,41.89
2018-01-05T14:35:06.967Z,41.99
2018-01-05T14:36:15.910Z,41.89
2018-01-05T14:37:25.184Z,41.99
2018-01-05T14:38:34.135Z,41.99
2018-01-05T14:39:43.087Z,41.8
2018-01-05T14:40:51.778Z,41.89
2018-01-05T14:42:01.011Z,41.99
2018-01-05T14:43:10.222Z,42.09
2018-01-05T14:44:19.184Z,42.09
2018-01-05T14:45:28.132Z,41.8
2018-01-05T14:46:36.826Z,41.89
2018-01-05T14:47:45.785Z,41.8
2018-01-05T14:48:55.006Z,41.89
2018-01-05T14:50:04.756Z,41.89
2018-01-05T14:51:13.961Z,41.99
2018-01-05T14:52:23.465Z,41.89
2018-01-05T14:53:32.685Z,41.8
2018-01-05T14:54:41.899Z,41.8
2018-01-05T14:55:51.121Z,41.8